Time,TemperatureF,DewpointF,PressureIn,WindDirection,WindDirectionDegrees,WindSpeedMPH,WindSpeedGustMPH,Humidity,HourlyPrecipIn,Conditions,Clouds,dailyrainin,SolarRadiationWatts/m^2,SoftwareType,DateUTC
2013-06-20 00:01:00,59.0,48.0,-100.00,NNE,18,5.0,9.0,68,0.00,,,0.08,0.000000,,2013-06-20 07:01:00,
2013-06-20 00:12:00,59.0,48.0,-100.00,NNE,18,5.0,9.0,68,0.00,,,0.08,0.000000,,2013-06-20 07:12:00,
2013-06-20 00:22:00,59.0,48.0,-100.00,NNE,18,5.0,9.0,68,0.00,,,0.08,0.000000,,2013-06-20 07:22:00,
2013-06-20 00:34:00,59.0,48.0,-100.00,NNE,18,5.0,9.0,68,0.00,,,0.08,0.000000,,2013-06-20 07:34:00,
2013-06-20 01:02:00,56.0,48.0,-100.00,NE,34,6.0,10.0,75,0.00,,,-99.99,0.000000,,2013-06-20 08:02:00,
2013-06-20 01:11:00,56.0,48.0,-100.00,NE,34,6.0,10.0,75,0.00,,,-99.99,0.000000,,2013-06-20 08:11:00,
2013-06-20 01:22:00,56.0,48.0,-100.00,NE,34,6.0,10.0,75,0.00,,,-99.99,0.000000,,2013-06-20 08:22:00,
2013-06-20 01:34:00,56.0,48.0,-100.00,NE,34,6.0,10.0,75,0.00,,,-99.99,0.000000,,2013-06-20 08:34:00,
2013-06-20 02:01:00,54.0,49.0,-100.00,NNE,29,4.0,10.0,83,0.00,,,0.08,0.000000,,2013-06-20 09:01:00,
2013-06-20 02:11:00,54.0,49.0,-100.00,NNE,29,4.0,10.0,83,0.00,,,0.08,0.000000,,2013-06-20 09:11:00,
2013-06-20 02:22:00,54.0,49.0,-100.00,NNE,29,4.0,10.0,83,0.00,,,0.08,0.000000,,2013-06-20 09:22:00,
2013-06-20 02:33:00,54.0,49.0,-100.00,NNE,29,4.0,10.0,83,0.00,,,0.08,0.000000,,2013-06-20 09:33:00,
2013-06-20 03:01:00,53.0,49.0,-100.00,North,4,3.0,9.0,87,0.05,,,0.13,0.000000,,2013-06-20 10:01:00,
2013-06-20 03:11:00,53.0,49.0,-100.00,North,4,3.0,9.0,87,0.05,,,0.13,0.000000,,2013-06-20 10:11:00,
2013-06-20 03:22:00,53.0,49.0,-100.00,North,4,3.0,9.0,87,0.05,,,0.13,0.000000,,2013-06-20 10:22:00,
2013-06-20 03:33:00,53.0,49.0,-100.00,North,4,3.0,9.0,87,0.05,,,0.13,0.000000,,2013-06-20 10:33:00,
2013-06-20 04:02:00,52.0,47.0,-100.00,NNE,16,3.0,14.0,84,0.07,,,0.20,0.000000,,2013-06-20 11:02:00,
2013-06-20 04:11:00,52.0,47.0,-100.00,NNE,16,3.0,14.0,84,0.07,,,0.20,0.000000,,2013-06-20 11:11:00,
2013-06-20 04:22:00,52.0,47.0,-100.00,NNE,16,3.0,14.0,84,0.07,,,0.20,0.000000,,2013-06-20 11:22:00,
2013-06-20 04:34:00,52.0,47.0,-100.00,NNE,16,3.0,14.0,84,0.07,,,0.20,0.000000,,2013-06-20 11:34:00,
2013-06-20 05:02:00,53.0,50.0,-100.00,NE,36,1.0,9.0,88,0.05,,,0.25,0.000000,,2013-06-20 12:02:00,
2013-06-20 05:11:00,53.0,50.0,-100.00,NE,36,1.0,9.0,88,0.05,,,0.25,0.000000,,2013-06-20 12:11:00,
2013-06-20 05:22:00,53.0,50.0,-100.00,NE,36,1.0,9.0,88,0.05,,,0.25,0.000000,,2013-06-20 12:22:00,
2013-06-20 05:33:00,53.0,50.0,-100.00,NE,36,1.0,9.0,88,0.05,,,0.25,0.000000,,2013-06-20 12:33:00,
2013-06-20 06:11:00,51.0,47.0,-100.00,North,356,9.0,13.0,87,0.06,,,0.31,1.000000,,2013-06-20 13:11:00,
2013-06-20 06:22:00,51.0,47.0,-100.00,North,356,9.0,13.0,87,0.06,,,0.31,1.000000,,2013-06-20 13:22:00,
2013-06-20 06:33:00,51.0,47.0,-100.00,North,356,9.0,13.0,87,0.06,,,0.31,1.000000,,2013-06-20 13:33:00,
2013-06-20 07:01:00,52.0,49.0,-100.00,North,349,10.0,18.0,88,0.05,,,0.36,13.000000,,2013-06-20 14:01:00,
2013-06-20 07:11:00,52.0,49.0,-100.00,North,349,10.0,18.0,88,0.05,,,0.36,13.000000,,2013-06-20 14:11:00,
2013-06-20 07:22:00,52.0,49.0,-100.00,North,349,10.0,18.0,88,0.05,,,0.36,13.000000,,2013-06-20 14:22:00,
2013-06-20 07:32:00,52.0,49.0,-100.00,North,349,10.0,18.0,88,0.05,,,0.36,13.000000,,2013-06-20 14:32:00,
2013-06-20 08:11:00,50.0,47.0,-100.00,NNW,347,8.0,15.0,89,0.05,,,0.41,31.000000,,2013-06-20 15:11:00,
2013-06-20 08:22:00,50.0,47.0,-100.00,NNW,347,8.0,15.0,89,0.05,,,0.41,31.000000,,2013-06-20 15:22:00,
2013-06-20 08:33:00,50.0,47.0,-100.00,NNW,347,8.0,15.0,89,0.05,,,0.41,31.000000,,2013-06-20 15:33:00,
2013-06-20 09:01:00,50.0,47.0,-100.00,NNW,329,11.0,18.0,88,0.04,,,0.45,68.000000,,2013-06-20 16:01:00,
2013-06-20 09:11:00,50.0,47.0,-100.00,NNW,329,11.0,18.0,88,0.04,,,0.45,68.000000,,2013-06-20 16:11:00,
2013-06-20 09:22:00,50.0,47.0,-100.00,NNW,329,11.0,18.0,88,0.04,,,0.45,68.000000,,2013-06-20 16:22:00,
2013-06-20 09:33:00,50.0,47.0,-100.00,NNW,329,11.0,18.0,88,0.04,,,0.45,68.000000,,2013-06-20 16:33:00,
2013-06-20 10:01:00,52.0,49.0,-100.00,NNW,327,10.0,19.0,88,0.03,,,0.48,119.000000,,2013-06-20 17:01:00,
2013-06-20 10:11:00,52.0,49.0,-100.00,NNW,327,10.0,19.0,88,0.03,,,0.48,119.000000,,2013-06-20 17:11:00,
2013-06-20 10:22:00,52.0,49.0,-100.00,NNW,327,10.0,19.0,88,0.03,,,0.48,119.000000,,2013-06-20 17:22:00,
2013-06-20 10:32:00,52.0,49.0,-100.00,NNW,327,10.0,19.0,88,0.03,,,0.48,119.000000,,2013-06-20 17:32:00,
2013-06-20 11:01:00,52.0,48.0,-100.00,North,349,10.0,16.0,86,0.04,,,0.52,238.000000,,2013-06-20 18:01:00,
2013-06-20 11:11:00,52.0,48.0,-100.00,North,349,10.0,16.0,86,0.04,,,0.52,238.000000,,2013-06-20 18:11:00,
2013-06-20 11:22:00,52.0,48.0,-100.00,North,349,10.0,16.0,86,0.04,,,0.52,238.000000,,2013-06-20 18:22:00,
2013-06-20 11:33:00,52.0,48.0,-100.00,North,349,10.0,16.0,86,0.04,,,0.52,238.000000,,2013-06-20 18:33:00,
2013-06-20 12:01:00,53.0,49.0,-100.00,NNW,344,6.0,14.0,85,0.01,,,0.51,234.000000,,2013-06-20 19:01:00,
2013-06-20 12:11:00,53.0,49.0,-100.00,NNW,344,6.0,14.0,85,0.01,,,0.51,234.000000,,2013-06-20 19:11:00,
2013-06-20 12:22:00,53.0,49.0,-100.00,NNW,344,6.0,14.0,85,0.01,,,0.51,234.000000,,2013-06-20 19:22:00,
2013-06-20 12:33:00,53.0,49.0,-100.00,NNW,344,6.0,14.0,85,0.01,,,0.51,234.000000,,2013-06-20 19:33:00,
2013-06-20 13:02:00,53.0,48.0,-100.00,NNW,330,11.0,17.0,83,0.02,,,0.52,207.000000,,2013-06-20 20:02:00,
2013-06-20 13:11:00,53.0,48.0,-100.00,NNW,330,11.0,17.0,83,0.02,,,0.52,207.000000,,2013-06-20 20:11:00,
2013-06-20 13:22:00,53.0,48.0,-100.00,NNW,330,11.0,17.0,83,0.02,,,0.52,207.000000,,2013-06-20 20:22:00,
2013-06-20 13:33:00,53.0,48.0,-100.00,NNW,330,11.0,17.0,83,0.02,,,0.52,207.000000,,2013-06-20 20:33:00,
2013-06-20 14:01:00,53.0,48.0,-100.00,NW,318,15.0,22.0,83,0.01,,,0.53,188.000000,,2013-06-20 21:01:00,
2013-06-20 14:11:00,53.0,48.0,-100.00,NW,318,15.0,22.0,83,0.01,,,0.53,188.000000,,2013-06-20 21:11:00,
2013-06-20 17:11:00,55.0,51.0,-100.00,NW,320,13.0,21.0,86,0.04,,,0.58,111.000000,,2013-06-21 00:11:00,